Terminal Aerodrome Forecast
Issued by NWS

Current Version | Previous Version | Graphics & Text | Print | Product List | Glossary On
Versions: 1 2 3 4 5 6 7 8 9 10 11 12 13 14 15 16 17 18 19 20 21 22
000
FTUS41 KILN 160500
TAFLUK
TAF
KLUK 160535Z 1606/1706 00000KT P6SM OVC025
     FM160700 18004KT P6SM OVC018
      TEMPO 1607/1611 -SHRA
     FM161100 20006KT P6SM OVC017
      TEMPO 1611/1613 -SHRA
     FM161300 22008KT P6SM OVC015
     FM161500 24012G20KT P6SM OVC020
     FM170000 24009G15KT P6SM OVC020=

USA.gov is the U.S. government's official web portal to all federal, state and local government web resources and services.